createdAt,value
2022-10-19T00:02:57.681Z,7.50
2022-10-19T00:08:01.662Z,7.55
2022-10-19T00:13:03.593Z,6.10
2022-10-19T00:18:05.287Z,8.70
2022-10-19T00:23:07.359Z,7.33
2022-10-19T00:28:09.402Z,7.07
2022-10-19T00:33:11.036Z,8.55
2022-10-19T00:38:12.723Z,8.82
2022-10-19T00:43:24.388Z,9.98
2022-10-19T00:48:31.265Z,8.25
2022-10-19T00:53:33.329Z,6.20
2022-10-19T00:58:35.514Z,6.13
2022-10-19T01:03:39.106Z,7.70
2022-10-19T01:08:40.939Z,7.72
2022-10-19T01:13:58.986Z,6.30
2022-10-19T01:19:24.857Z,6.65
2022-10-19T01:24:45.472Z,7.43
2022-10-19T01:29:59.239Z,6.07
2022-10-19T01:35:42.448Z,8.40
2022-10-19T01:46:36.171Z,7.70
2022-10-19T01:51:42.926Z,7.45
2022-10-19T01:56:47.815Z,7.88
2022-10-19T02:01:52.534Z,6.43
2022-10-19T02:06:55.421Z,6.38
2022-10-19T02:17:19.218Z,5.80
2022-10-19T02:22:21.947Z,6.90
2022-10-19T02:27:23.771Z,7.22
2022-10-19T02:32:26.749Z,6.05
2022-10-19T02:37:28.691Z,6.82
2022-10-19T02:42:43.953Z,5.88
2022-10-19T02:48:03.613Z,7.82
2022-10-19T02:53:05.304Z,7.32
2022-10-19T02:58:07.088Z,7.38
2022-10-19T03:03:09.672Z,8.50
2022-10-19T03:08:11.440Z,6.82
2022-10-19T03:13:13.161Z,5.45
2022-10-19T03:18:15.034Z,5.43
2022-10-19T03:23:16.910Z,6.32
2022-10-19T03:28:18.602Z,7.20
2022-10-19T03:33:20.525Z,8.30
2022-10-19T03:38:22.206Z,7.50
2022-10-19T03:43:24.003Z,7.07
2022-10-19T03:48:25.931Z,7.68
2022-10-19T03:53:28.014Z,6.17
2022-10-19T03:58:31.333Z,8.70
2022-10-19T04:03:33.026Z,6.50
2022-10-19T04:08:35.177Z,6.75
2022-10-19T04:13:37.230Z,7.07
2022-10-19T04:18:39.015Z,7.30
2022-10-19T04:23:40.776Z,13.43
2022-10-19T04:28:42.542Z,11.45
2022-10-19T04:38:46.522Z,22.27
2022-10-19T04:43:49.101Z,21.80
2022-10-19T04:48:51.772Z,23.95
2022-10-19T04:53:58.604Z,23.95
2022-10-19T04:59:01.634Z,24.92
2022-10-19T05:04:03.518Z,21.42
2022-10-19T05:09:05.265Z,22.27
2022-10-19T05:14:06.997Z,21.52
2022-10-19T05:19:13.076Z,21.20
2022-10-19T05:24:14.762Z,18.45
2022-10-19T05:29:16.424Z,18.05
2022-10-19T05:34:18.162Z,19.48
2022-10-19T05:39:19.822Z,18.15
2022-10-19T05:44:23.249Z,20.25
2022-10-19T05:49:24.914Z,18.33
2022-10-19T05:54:28.454Z,18.17
2022-10-19T05:59:31.014Z,18.95
2022-10-19T06:04:33.704Z,18.30
2022-10-19T06:09:36.512Z,20.13
2022-10-19T06:19:39.863Z,20.17
2022-10-19T06:24:41.547Z,18.88
2022-10-19T06:29:43.200Z,20.15
2022-10-19T06:34:44.986Z,19.48
2022-10-19T06:39:46.756Z,17.38
2022-10-19T06:44:48.431Z,17.27
2022-10-19T06:49:50.129Z,13.98
2022-10-19T06:54:52.151Z,18.30
2022-10-19T06:59:54.108Z,17.38
2022-10-19T07:04:55.807Z,15.67
2022-10-19T07:09:57.572Z,15.90
2022-10-19T07:14:59.241Z,16.40
2022-10-19T07:20:01.302Z,19.40
2022-10-19T07:25:03.360Z,14.55
2022-10-19T07:30:05.936Z,14.52
2022-10-19T07:35:07.834Z,14.40
2022-10-19T07:40:10.130Z,14.65
2022-10-19T07:45:12.113Z,14.18
2022-10-19T07:50:13.881Z,13.68
2022-10-19T07:55:15.711Z,13.70
2022-10-19T08:00:17.634Z,13.73
2022-10-19T08:05:19.341Z,13.17
2022-10-19T08:10:21.069Z,13.48
2022-10-19T08:15:22.806Z,11.90
2022-10-19T08:20:24.782Z,10.52
2022-10-19T08:25:26.721Z,9.95
2022-10-19T08:30:28.393Z,9.90
2022-10-19T08:35:31.170Z,8.10
2022-10-19T08:40:33.022Z,8.38
2022-10-19T08:50:45.315Z,7.88
2022-10-19T08:56:55.582Z,8.50
2022-10-19T09:02:02.683Z,10.90
2022-10-19T09:07:31.034Z,14.23
2022-10-19T09:12:47.541Z,15.05
2022-10-19T09:17:49.298Z,14.23
2022-10-19T09:23:19.969Z,12.90
2022-10-19T09:28:45.285Z,11.98
2022-10-19T09:33:55.497Z,12.43
2022-10-19T09:38:57.146Z,13.52
2022-10-19T09:43:59.827Z,13.30
2022-10-19T09:49:04.135Z,11.93
2022-10-19T09:54:05.853Z,10.57
2022-10-19T09:59:22.066Z,8.77
2022-10-19T10:04:23.765Z,8.65
2022-10-19T10:09:28.529Z,8.55
2022-10-19T10:14:34.914Z,8.80
2022-10-19T10:19:37.291Z,8.98
2022-10-19T10:24:51.956Z,8.15
2022-10-19T10:35:07.791Z,7.70
2022-10-19T10:40:27.887Z,7.18
2022-10-19T10:46:04.020Z,5.20
2022-10-19T10:51:19.403Z,5.22
2022-10-19T10:56:29.562Z,4.28
2022-10-19T11:01:40.054Z,4.72
2022-10-19T11:06:52.647Z,4.40
2022-10-19T11:11:56.310Z,4.27
2022-10-19T11:17:03.828Z,4.70
2022-10-19T11:22:28.322Z,4.10
2022-10-19T11:27:48.964Z,4.00
2022-10-19T11:33:07.743Z,4.00
2022-10-19T11:38:21.382Z,3.30
2022-10-19T11:43:59.729Z,2.90
2022-10-19T11:49:22.480Z,2.83
2022-10-19T11:54:33.299Z,3.22
2022-10-19T12:00:14.788Z,2.80
2022-10-19T12:05:32.265Z,2.80
2022-10-19T12:10:44.076Z,2.60
2022-10-19T12:15:49.705Z,3.37
2022-10-19T12:20:56.199Z,2.90
2022-10-19T12:26:01.638Z,3.20
2022-10-19T12:31:05.543Z,3.20
2022-10-19T12:36:30.294Z,3.78
2022-10-19T12:41:40.998Z,3.50
2022-10-19T12:46:52.501Z,3.75
2022-10-19T12:57:00.401Z,3.57
2022-10-19T13:02:06.361Z,4.00
2022-10-19T13:07:10.492Z,3.60
2022-10-19T13:12:21.544Z,3.63
2022-10-19T13:17:50.938Z,3.50
2022-10-19T13:23:03.405Z,3.55
2022-10-19T13:28:07.890Z,3.58
2022-10-19T13:33:34.931Z,3.50
2022-10-19T13:38:42.597Z,3.65
2022-10-19T13:44:06.621Z,3.90
2022-10-19T13:49:27.898Z,3.60
2022-10-19T13:54:34.708Z,3.40
2022-10-19T14:00:01.531Z,3.58
2022-10-19T14:05:30.373Z,4.10
2022-10-19T14:10:43.469Z,3.50
2022-10-19T14:15:57.534Z,4.15
2022-10-19T14:21:09.721Z,4.03
2022-10-19T14:26:16.590Z,3.70
2022-10-19T14:31:22.688Z,3.67
2022-10-19T14:36:31.322Z,3.42
2022-10-19T14:41:37.212Z,3.97
2022-10-19T14:46:39.152Z,3.97
2022-10-19T14:51:49.780Z,3.53
2022-10-19T14:56:51.656Z,3.42
2022-10-19T15:01:58.053Z,3.45
2022-10-19T15:07:03.429Z,4.10
2022-10-19T15:12:09.263Z,3.80
2022-10-19T15:17:31.559Z,3.65
2022-10-19T15:22:33.545Z,4.00
2022-10-19T15:27:41.899Z,3.70
2022-10-19T15:33:10.717Z,3.88
2022-10-19T15:38:20.000Z,4.00
2022-10-19T15:43:30.929Z,4.25
2022-10-19T15:48:41.802Z,4.00
2022-10-19T15:53:43.466Z,3.78
2022-10-19T15:58:49.365Z,4.40
2022-10-19T16:03:51.052Z,4.15
2022-10-19T16:08:54.080Z,4.20
2022-10-19T16:13:56.139Z,4.30
2022-10-19T16:19:00.708Z,4.20
2022-10-19T16:24:02.943Z,4.05
2022-10-19T16:29:04.738Z,4.40
2022-10-19T16:34:06.468Z,4.03
2022-10-19T16:39:08.467Z,4.70
2022-10-19T16:44:12.628Z,4.43
2022-10-19T16:49:14.388Z,4.82
2022-10-19T16:54:17.518Z,4.90
2022-10-19T16:59:19.361Z,4.72
2022-10-19T17:04:21.146Z,4.77
2022-10-19T17:14:48.722Z,4.72
2022-10-19T17:19:50.545Z,5.30
2022-10-19T17:24:55.474Z,4.65
2022-10-19T17:29:57.180Z,5.10
2022-10-19T17:34:58.862Z,5.53
2022-10-19T17:40:00.558Z,6.57
2022-10-19T17:45:02.369Z,8.52
2022-10-19T17:50:04.389Z,6.33
2022-10-19T17:55:11.998Z,5.60
2022-10-19T18:00:14.697Z,6.03
2022-10-19T18:05:17.283Z,5.97
2022-10-19T18:10:19.473Z,5.90
2022-10-19T18:15:21.266Z,6.23
2022-10-19T18:20:23.077Z,6.72
2022-10-19T18:25:42.293Z,5.75
2022-10-19T18:30:46.724Z,5.60
2022-10-19T18:35:49.663Z,5.47
2022-10-19T18:45:54.313Z,5.18
2022-10-19T18:50:57.257Z,5.28
2022-10-19T19:01:07.839Z,5.03
2022-10-19T19:06:12.746Z,6.22
2022-10-19T19:11:21.814Z,5.88
2022-10-19T19:16:24.296Z,6.30
2022-10-19T19:21:28.874Z,5.82
2022-10-19T19:26:33.072Z,4.88
2022-10-19T19:31:35.256Z,5.50
2022-10-19T19:41:43.651Z,6.10
2022-10-19T19:46:45.685Z,7.10
2022-10-19T19:51:49.119Z,4.43
2022-10-19T19:56:51.997Z,4.68
2022-10-19T20:06:55.417Z,5.30
2022-10-19T20:11:57.209Z,6.40
2022-10-19T20:16:59.108Z,6.07
2022-10-19T20:22:01.541Z,5.38
2022-10-19T20:27:03.560Z,5.57
2022-10-19T20:32:05.294Z,6.60
2022-10-19T20:37:07.185Z,5.70
2022-10-19T20:42:08.960Z,3.60
2022-10-19T20:47:11.496Z,6.07
2022-10-19T20:52:13.171Z,7.20
2022-10-19T20:57:14.943Z,6.47
2022-10-19T21:02:16.629Z,5.85
2022-10-19T21:07:18.416Z,6.32
2022-10-19T21:12:20.209Z,4.80
2022-10-19T21:17:22.044Z,3.75
2022-10-19T21:22:23.743Z,4.85
2022-10-19T21:27:25.761Z,4.97
2022-10-19T21:32:27.509Z,5.53
2022-10-19T21:37:29.422Z,5.70
2022-10-19T21:42:31.224Z,6.45
2022-10-19T21:47:33.325Z,7.32
2022-10-19T21:52:35.416Z,5.60
2022-10-19T21:57:37.672Z,6.50
2022-10-19T22:02:39.588Z,7.80
2022-10-19T22:07:41.450Z,6.07
2022-10-19T22:12:43.186Z,6.93
2022-10-19T22:17:44.913Z,7.82
2022-10-19T22:22:49.169Z,9.02
2022-10-19T22:27:53.168Z,8.50
2022-10-19T22:32:55.760Z,7.70
2022-10-19T22:37:57.881Z,11.75
2022-10-19T22:43:01.462Z,12.68
2022-10-19T22:48:05.708Z,12.73
2022-10-19T22:53:07.605Z,13.50
2022-10-19T22:58:09.535Z,14.00
2022-10-19T23:03:11.454Z,12.70
2022-10-19T23:08:13.339Z,13.98
2022-10-19T23:13:15.519Z,12.73
2022-10-19T23:18:17.931Z,14.23
2022-10-19T23:23:19.724Z,14.27
2022-10-19T23:28:21.433Z,13.93
2022-10-19T23:33:23.750Z,14.70
2022-10-19T23:38:25.440Z,14.60
2022-10-19T23:43:27.428Z,15.57
2022-10-19T23:48:29.122Z,15.70
2022-10-19T23:53:35.689Z,14.32
2022-10-19T23:58:40.481Z,15.95
